< < Back
Terminal Aerodrome Forecast


Current Version              Previous Versions:   1  2  3  4  5  6  7  8  9  

Terminal Aerodrome Forecast

852
FTUS42 KFFC 222300
TAFAHN
TAF
KAHN 222323Z 2300/2324 00000KT P6SM SKC
     FM231600 30004KT P6SM SKC=

Latest METAR

334
SAUS70 KWBC 230500
MTRAHN
METAR KAHN 230451Z 00000KT 10SM CLR 07/05 A3011 RMK AO2 SLP196 T00720050
402110061


USA.gov is the U.S. government's official web portal to all federal, state and local government web resources and services.